createdAt,value
2017-07-18T00:00:33.502Z,0
2017-07-18T00:01:43.710Z,0
2017-07-18T00:02:53.995Z,0
2017-07-18T00:04:03.979Z,0
2017-07-18T00:05:14.273Z,0
2017-07-18T00:06:24.550Z,0
2017-07-18T00:07:34.456Z,0
2017-07-18T00:08:44.757Z,0
2017-07-18T00:09:54.722Z,0
2017-07-18T00:11:05.018Z,0
2017-07-18T00:12:14.996Z,0
2017-07-18T00:13:25.541Z,0
2017-07-18T00:14:35.818Z,0
2017-07-18T00:15:45.805Z,0
2017-07-18T00:16:55.763Z,0
2017-07-18T00:18:06.061Z,0
2017-07-18T00:19:16.600Z,0
2017-07-18T00:20:26.901Z,0
2017-07-18T00:21:36.866Z,0
2017-07-18T00:22:47.143Z,0
2017-07-18T00:23:57.111Z,0
2017-07-18T00:25:07.643Z,0
2017-07-18T00:26:17.937Z,0
2017-07-18T00:27:27.902Z,0
2017-07-18T00:28:38.190Z,0
2017-07-18T00:29:48.472Z,0
2017-07-18T00:30:59.000Z,0
2017-07-18T00:32:09.304Z,0
2017-07-18T00:33:19.581Z,0
2017-07-18T00:34:29.858Z,0
2017-07-18T00:35:39.839Z,0
2017-07-18T00:36:50.384Z,0
2017-07-18T00:38:00.681Z,0
2017-07-18T00:39:10.950Z,0
2017-07-18T00:40:20.923Z,0
2017-07-18T00:41:31.200Z,0
2017-07-18T00:42:41.121Z,0
2017-07-18T00:43:51.413Z,0
2017-07-18T00:45:01.701Z,0
2017-07-18T00:46:11.988Z,0
2017-07-18T00:47:21.953Z,0
2017-07-18T00:48:32.171Z,0
2017-07-18T00:49:42.460Z,0
2017-07-18T00:50:52.734Z,0
2017-07-18T00:52:03.009Z,0
2017-07-18T00:53:12.984Z,0
2017-07-18T00:54:23.516Z,0
2017-07-18T00:55:33.806Z,0
2017-07-18T00:56:44.103Z,0
2017-07-18T00:57:54.111Z,0
2017-07-18T00:59:04.079Z,0
2017-07-18T01:00:14.693Z,0
2017-07-18T01:01:24.986Z,0
2017-07-18T01:02:35.287Z,0
2017-07-18T01:03:45.590Z,0
2017-07-18T01:04:55.562Z,0
2017-07-18T01:06:05.778Z,0
2017-07-18T01:07:15.741Z,0
2017-07-18T01:08:26.041Z,0
2017-07-18T01:09:35.712Z,0
2017-07-18T01:10:46.010Z,0
2017-07-18T01:11:56.564Z,0
2017-07-18T01:13:06.545Z,0
2017-07-18T01:14:16.853Z,0
2017-07-18T01:15:27.129Z,0
2017-07-18T01:16:37.115Z,0
2017-07-18T01:17:47.656Z,0
2017-07-18T01:18:57.945Z,0
2017-07-18T01:20:07.598Z,0
2017-07-18T01:21:17.886Z,0
2017-07-18T01:22:27.884Z,0
2017-07-18T01:23:38.439Z,0
2017-07-18T01:24:48.730Z,0
2017-07-18T01:25:59.018Z,0
2017-07-18T01:27:08.684Z,0
2017-07-18T01:28:18.973Z,0
2017-07-18T01:29:29.515Z,0
2017-07-18T01:30:39.484Z,0
2017-07-18T01:31:49.768Z,0
2017-07-18T01:32:59.744Z,0
2017-07-18T01:34:10.046Z,0
2017-07-18T01:35:20.569Z,0
2017-07-18T01:36:30.535Z,0
2017-07-18T01:37:40.192Z,0
2017-07-18T01:38:49.862Z,0
2017-07-18T01:39:59.838Z,0
2017-07-18T01:41:10.379Z,0
2017-07-18T01:42:20.379Z,0
2017-07-18T01:43:30.662Z,0
2017-07-18T01:44:40.328Z,0
2017-07-18T01:45:50.301Z,0
2017-07-18T01:47:00.820Z,0
2017-07-18T01:48:11.096Z,0
2017-07-18T01:49:21.390Z,0
2017-07-18T01:50:31.705Z,0
2017-07-18T01:51:42.008Z,0
2017-07-18T01:52:52.235Z,0
2017-07-18T01:54:02.198Z,0
2017-07-18T01:55:12.159Z,0
2017-07-18T01:56:22.446Z,0
2017-07-18T01:57:32.728Z,0
2017-07-18T01:58:43.255Z,0
2017-07-18T01:59:53.238Z,0
2017-07-18T02:01:03.512Z,0
2017-07-18T02:02:13.812Z,0
2017-07-18T02:03:23.784Z,0
2017-07-18T02:04:34.314Z,0
2017-07-18T02:05:44.310Z,0
2017-07-18T02:06:54.594Z,0
2017-07-18T02:08:04.880Z,0
2017-07-18T02:09:14.539Z,0
2017-07-18T02:10:25.084Z,0
2017-07-18T02:11:35.364Z,0
2017-07-18T02:12:45.331Z,0
2017-07-18T02:13:55.622Z,0
2017-07-18T02:15:05.896Z,0
2017-07-18T02:16:16.152Z,0
2017-07-18T02:17:26.437Z,0
2017-07-18T02:18:36.427Z,0
2017-07-18T02:19:46.708Z,0
2017-07-18T02:20:56.664Z,4
2017-07-18T02:22:06.907Z,4
2017-07-18T02:23:17.191Z,0
2017-07-18T02:24:27.468Z,4
2017-07-18T02:25:37.735Z,4
2017-07-18T02:26:47.710Z,4
2017-07-18T02:27:58.297Z,4
2017-07-18T02:29:08.266Z,8
2017-07-18T02:30:18.567Z,4
2017-07-18T02:31:28.247Z,8
2017-07-18T02:32:38.532Z,8
2017-07-18T02:33:49.065Z,12
2017-07-18T02:34:59.377Z,12
2017-07-18T02:36:09.084Z,16
2017-07-18T02:37:19.369Z,20
2017-07-18T02:38:29.665Z,20
2017-07-18T02:39:39.560Z,20
2017-07-18T02:40:49.874Z,24
2017-07-18T02:42:00.193Z,32
2017-07-18T02:43:10.515Z,36
2017-07-18T02:44:20.484Z,40
2017-07-18T02:45:31.019Z,48
2017-07-18T02:46:41.378Z,52
2017-07-18T02:47:51.045Z,64
2017-07-18T02:49:01.010Z,72
2017-07-18T02:50:10.678Z,84
2017-07-18T02:51:21.215Z,92
2017-07-18T02:52:31.595Z,108
2017-07-18T02:53:41.579Z,124
2017-07-18T02:54:51.571Z,140
2017-07-18T02:56:01.561Z,156
2017-07-18T02:57:11.800Z,176
2017-07-18T02:58:21.466Z,200
2017-07-18T02:59:32.505Z,224
2017-07-18T03:00:42.806Z,252
2017-07-18T03:01:53.092Z,276
2017-07-18T03:03:03.634Z,312
2017-07-18T03:04:13.932Z,344
2017-07-18T03:05:23.893Z,376
2017-07-18T03:06:34.173Z,412
2017-07-18T03:07:44.156Z,452
2017-07-18T03:08:54.698Z,496
2017-07-18T03:10:04.688Z,544
2017-07-18T03:11:14.960Z,592
2017-07-18T03:12:25.253Z,644
2017-07-18T03:13:35.537Z,700
2017-07-18T03:14:46.081Z,756
2017-07-18T03:15:56.359Z,812
2017-07-18T03:17:06.636Z,876
2017-07-18T03:18:16.921Z,940
2017-07-18T03:19:26.871Z,1008
2017-07-18T03:20:37.406Z,1080
2017-07-18T03:21:47.381Z,1148
2017-07-18T03:22:57.044Z,1228
2017-07-18T03:24:07.040Z,1320
2017-07-18T03:25:17.324Z,1384
2017-07-18T03:26:27.549Z,1452
2017-07-18T03:27:37.836Z,1552
2017-07-18T03:28:47.825Z,1628
2017-07-18T03:29:57.500Z,1704
2017-07-18T03:31:07.798Z,1784
2017-07-18T03:32:18.065Z,1872
2017-07-18T03:33:28.053Z,1952
2017-07-18T03:34:38.346Z,2040
2017-07-18T03:35:48.313Z,2128
2017-07-18T03:36:58.288Z,2216
2017-07-18T03:38:08.545Z,2304
2017-07-18T03:39:18.825Z,2388
2017-07-18T03:40:28.482Z,2476
2017-07-18T03:41:38.450Z,2556
2017-07-18T03:42:48.730Z,2632
2017-07-18T03:43:59.266Z,2708
2017-07-18T03:45:09.555Z,2788
2017-07-18T03:46:19.851Z,2860
2017-07-18T03:47:30.125Z,2940
2017-07-18T03:48:40.104Z,3020
2017-07-18T03:49:50.643Z,3096
2017-07-18T03:51:00.960Z,3180
2017-07-18T03:52:11.244Z,3260
2017-07-18T03:53:21.519Z,3344
2017-07-18T03:54:31.204Z,3420
2017-07-18T03:55:41.422Z,3500
2017-07-18T03:56:51.712Z,3580
2017-07-18T03:58:02.006Z,3652
2017-07-18T03:59:12.321Z,3728
2017-07-18T04:00:21.976Z,3796
2017-07-18T04:01:32.522Z,3864
2017-07-18T04:02:42.499Z,3936
2017-07-18T04:03:52.789Z,4004
2017-07-18T04:05:03.081Z,4072
2017-07-18T04:06:13.365Z,4140
2017-07-18T04:07:23.605Z,4204
2017-07-18T04:08:33.292Z,4268
2017-07-18T04:09:43.598Z,4336
2017-07-18T04:10:53.910Z,4396
2017-07-18T04:12:04.194Z,4460
2017-07-18T04:13:14.723Z,4524
2017-07-18T04:14:25.044Z,4584
2017-07-18T04:15:35.338Z,4644
2017-07-18T04:16:45.638Z,4704
2017-07-18T04:17:55.612Z,4760
2017-07-18T04:19:06.167Z,4816
2017-07-18T04:20:16.462Z,4872
2017-07-18T04:21:26.759Z,4924
2017-07-18T04:22:36.437Z,4984
2017-07-18T04:23:46.725Z,5036
2017-07-18T04:24:57.256Z,5088
2017-07-18T04:26:07.239Z,5140
2017-07-18T04:27:17.224Z,5188
2017-07-18T04:28:27.524Z,5236
2017-07-18T04:29:37.816Z,5284
2017-07-18T04:30:48.036Z,5328
2017-07-18T04:31:58.333Z,5376
2017-07-18T04:33:08.323Z,5420
2017-07-18T04:34:18.310Z,5464
2017-07-18T04:35:28.581Z,5512
2017-07-18T04:36:39.122Z,5556
2017-07-18T04:37:49.089Z,5600
2017-07-18T04:38:59.369Z,5644
2017-07-18T04:40:09.662Z,5688
2017-07-18T04:41:19.630Z,5732
2017-07-18T04:42:30.168Z,5772
2017-07-18T04:43:39.856Z,5816
2017-07-18T04:44:50.130Z,5856
2017-07-18T04:46:00.409Z,5896
2017-07-18T04:47:10.685Z,5940
2017-07-18T04:48:21.224Z,5980
2017-07-18T04:49:31.509Z,6024
2017-07-18T04:50:41.799Z,6068
2017-07-18T04:51:51.777Z,6108
2017-07-18T04:53:02.065Z,6148
2017-07-18T04:54:12.310Z,6184
2017-07-18T04:55:22.283Z,6220
2017-07-18T04:56:32.566Z,6256
2017-07-18T04:57:42.212Z,6288
2017-07-18T04:58:52.510Z,6320
2017-07-18T05:00:02.746Z,6356
2017-07-18T05:01:13.028Z,6388
2017-07-18T05:02:23.321Z,6420
2017-07-18T05:03:33.619Z,6452
2017-07-18T05:04:43.604Z,6484
2017-07-18T05:05:54.162Z,6520
2017-07-18T05:07:04.460Z,6548
2017-07-18T05:08:14.444Z,6592
2017-07-18T05:09:24.410Z,6652
2017-07-18T05:10:34.693Z,6696
2017-07-18T05:11:44.921Z,6708
2017-07-18T05:12:54.612Z,6728
2017-07-18T05:14:03.987Z,6760
2017-07-18T05:15:14.273Z,6800
2017-07-18T05:16:24.562Z,6836
2017-07-18T05:17:34.781Z,6872
2017-07-18T05:18:44.441Z,6896
2017-07-18T05:19:54.738Z,6932
2017-07-18T05:21:05.020Z,6960
2017-07-18T05:22:15.335Z,6996
2017-07-18T05:23:25.885Z,7024
2017-07-18T05:24:35.566Z,7060
2017-07-18T05:25:45.858Z,7096
2017-07-18T05:26:56.158Z,7124
2017-07-18T05:28:06.461Z,7152
2017-07-18T05:29:16.988Z,7184
2017-07-18T05:30:27.275Z,7208
2017-07-18T05:31:37.254Z,7232
2017-07-18T05:32:47.549Z,7256
2017-07-18T05:33:57.845Z,7272
2017-07-18T05:35:08.434Z,7292
2017-07-18T05:36:18.744Z,7312
2017-07-18T05:37:28.705Z,7332
2017-07-18T05:38:38.979Z,7348
2017-07-18T05:39:49.261Z,7380
2017-07-18T05:40:59.796Z,7416
2017-07-18T05:42:10.117Z,7444
2017-07-18T05:43:20.411Z,7472
2017-07-18T05:44:30.391Z,7504
2017-07-18T05:45:40.058Z,7532
2017-07-18T05:46:50.592Z,7560
2017-07-18T05:48:00.887Z,7596
2017-07-18T05:49:11.186Z,7620
2017-07-18T05:50:20.849Z,7644
2017-07-18T05:51:31.367Z,7664
2017-07-18T05:52:41.918Z,7692
2017-07-18T05:53:52.218Z,7712
2017-07-18T05:55:02.199Z,7732
2017-07-18T05:56:12.499Z,7752
2017-07-18T05:57:22.768Z,7776
2017-07-18T05:58:33.319Z,7800
2017-07-18T05:59:43.608Z,7828
2017-07-18T06:00:53.907Z,7856
2017-07-18T06:02:03.611Z,7884
2017-07-18T06:03:13.911Z,7912
2017-07-18T06:04:24.199Z,7940
2017-07-18T06:05:34.176Z,7972
2017-07-18T06:06:44.165Z,8004
2017-07-18T06:07:53.874Z,8036
2017-07-18T06:09:03.890Z,8060
2017-07-18T06:10:14.437Z,8092
2017-07-18T06:11:24.435Z,8120
2017-07-18T06:12:34.507Z,8152
2017-07-18T06:13:45.076Z,8184
2017-07-18T06:14:55.073Z,8216
2017-07-18T06:16:05.683Z,8252
2017-07-18T06:17:15.728Z,8288
2017-07-18T06:18:26.049Z,8316
2017-07-18T06:19:36.335Z,8352
2017-07-18T06:20:46.615Z,8384
2017-07-18T06:21:56.854Z,8412
2017-07-18T06:23:06.837Z,8448
2017-07-18T06:24:16.830Z,8488
2017-07-18T06:25:27.122Z,8540
2017-07-18T06:26:37.112Z,8616
2017-07-18T06:27:47.655Z,8696
2017-07-18T06:28:57.967Z,8760
2017-07-18T06:30:08.309Z,8820
2017-07-18T06:31:18.293Z,8884
2017-07-18T06:32:28.282Z,8952
2017-07-18T06:33:38.522Z,9012
2017-07-18T06:34:48.839Z,9072
2017-07-18T06:35:58.815Z,9124
2017-07-18T06:37:08.820Z,9184
2017-07-18T06:38:19.144Z,9236
2017-07-18T06:39:29.679Z,9284
2017-07-18T06:40:39.695Z,9324
2017-07-18T06:41:49.698Z,9364
2017-07-18T06:42:59.985Z,9412
2017-07-18T06:44:10.313Z,9460
2017-07-18T06:45:20.905Z,9492
2017-07-18T06:46:31.212Z,9520
2017-07-18T06:47:41.545Z,9548
2017-07-18T06:48:51.537Z,9576
2017-07-18T06:50:02.095Z,9604
2017-07-18T06:51:12.670Z,9632
2017-07-18T06:52:22.998Z,9664
2017-07-18T06:53:33.030Z,9696
2017-07-18T06:54:43.350Z,9732
2017-07-18T06:55:53.326Z,9760
2017-07-18T06:57:03.580Z,9792
2017-07-18T06:58:13.594Z,9832
2017-07-18T06:59:23.567Z,9872
2017-07-18T07:00:33.895Z,9908
2017-07-18T07:01:44.226Z,9948
2017-07-18T07:02:54.769Z,9984
2017-07-18T07:04:04.739Z,10024
2017-07-18T07:05:14.764Z,10068
2017-07-18T07:06:25.093Z,10116
2017-07-18T07:07:35.404Z,10160
2017-07-18T07:08:46.018Z,10212
2017-07-18T07:09:56.316Z,10256
2017-07-18T07:11:06.331Z,10296
2017-07-18T07:12:16.343Z,10336
2017-07-18T07:13:26.321Z,10380
2017-07-18T07:14:36.864Z,10432
2017-07-18T07:15:47.199Z,10476
2017-07-18T07:16:57.507Z,10512
2017-07-18T07:18:07.809Z,10548
2017-07-18T07:19:17.803Z,10568
2017-07-18T07:20:28.396Z,10608
2017-07-18T07:21:38.704Z,10648
2017-07-18T07:22:49.032Z,10700
2017-07-18T07:23:59.345Z,10744
2017-07-18T07:25:09.332Z,10800
2017-07-18T07:26:19.900Z,10856
2017-07-18T07:27:29.878Z,10920
2017-07-18T07:28:39.899Z,10968
2017-07-18T07:29:49.899Z,10996
2017-07-18T07:31:00.185Z,11028
2017-07-18T07:32:10.433Z,11064
2017-07-18T07:33:20.396Z,11116
2017-07-18T07:34:30.714Z,11148
2017-07-18T07:35:40.686Z,11180
2017-07-18T07:36:50.973Z,11224
2017-07-18T07:38:01.535Z,11260
2017-07-18T07:39:11.852Z,11304
2017-07-18T07:40:22.159Z,11356
2017-07-18T07:41:32.481Z,11448
2017-07-18T07:42:42.768Z,11592
2017-07-18T07:43:53.310Z,11788
2017-07-18T07:45:03.278Z,11912
2017-07-18T07:46:13.253Z,12116
2017-07-18T07:47:23.232Z,12368
2017-07-18T07:48:33.540Z,12532
2017-07-18T07:49:44.077Z,12912
2017-07-18T07:50:54.357Z,13372
2017-07-18T07:52:04.676Z,14056
2017-07-18T07:53:14.662Z,14552
2017-07-18T07:54:24.939Z,15104
2017-07-18T07:55:35.179Z,16876
2017-07-18T07:56:45.475Z,17220
2017-07-18T07:57:56.183Z,17508
2017-07-18T07:59:06.161Z,18676
2017-07-18T08:00:16.151Z,19840
2017-07-18T08:01:26.691Z,20864
2017-07-18T08:02:36.691Z,21152
2017-07-18T08:03:46.972Z,22272
2017-07-18T08:04:56.955Z,23264
2017-07-18T08:06:07.241Z,24224
2017-07-18T08:07:17.490Z,25568
2017-07-18T08:08:27.820Z,27328
2017-07-18T08:09:38.121Z,27648
2017-07-18T08:10:48.420Z,26976
2017-07-18T08:11:58.733Z,27168
2017-07-18T08:13:08.960Z,27776
2017-07-18T08:14:18.959Z,27168
2017-07-18T08:15:29.282Z,26464
2017-07-18T08:16:39.592Z,25312
2017-07-18T08:17:49.557Z,24128
2017-07-18T08:19:00.108Z,23424
2017-07-18T08:20:10.407Z,22944
2017-07-18T08:21:20.401Z,22592
2017-07-18T08:22:30.370Z,21792
2017-07-18T08:23:40.656Z,21152
2017-07-18T08:24:51.261Z,21408
2017-07-18T08:26:01.229Z,19904
2017-07-18T08:27:11.204Z,19200
2017-07-18T08:28:21.519Z,18368
2017-07-18T08:29:31.841Z,18324
2017-07-18T08:30:42.072Z,19232
2017-07-18T08:31:52.435Z,19616
2017-07-18T08:33:02.735Z,19872
2017-07-18T08:34:13.028Z,20288
2017-07-18T08:35:23.319Z,21152
2017-07-18T08:36:33.543Z,21824
2017-07-18T08:37:43.837Z,31520
2017-07-18T08:38:53.805Z,54912
2017-07-18T08:40:04.090Z,59232
2017-07-18T08:41:14.374Z,60832
2017-07-18T08:42:24.928Z,65536
2017-07-18T08:43:35.251Z,64352
2017-07-18T08:44:45.552Z,65568
2017-07-18T08:45:55.835Z,68224
2017-07-18T08:47:05.841Z,55712
2017-07-18T08:48:16.077Z,53728
2017-07-18T08:49:26.076Z,28512
2017-07-18T08:50:35.761Z,34112
2017-07-18T08:51:45.469Z,56576
2017-07-18T08:52:55.872Z,27296
2017-07-18T08:54:05.851Z,34368
2017-07-18T08:55:16.169Z,39968
2017-07-18T08:56:26.463Z,70176
2017-07-18T08:57:36.788Z,68704
2017-07-18T08:58:46.768Z,74176
2017-07-18T08:59:57.357Z,65056
2017-07-18T09:01:07.665Z,78016
2017-07-18T09:02:17.975Z,78432
2017-07-18T09:03:27.975Z,78112
2017-07-18T09:04:37.979Z,73248
2017-07-18T09:05:48.530Z,50976
2017-07-18T09:06:58.499Z,36768
2017-07-18T09:08:08.487Z,36800
2017-07-18T09:09:18.835Z,74944
2017-07-18T09:10:29.130Z,83072
2017-07-18T09:11:39.696Z,47104
2017-07-18T09:12:49.694Z,59456
2017-07-18T09:13:59.714Z,31648
2017-07-18T09:15:09.960Z,30624
2017-07-18T09:16:20.250Z,28416
2017-07-18T09:17:30.480Z,26720
2017-07-18T09:18:40.840Z,26560
2017-07-18T09:19:51.143Z,24448
2017-07-18T09:21:01.161Z,23584
2017-07-18T09:22:11.152Z,24128
2017-07-18T09:23:21.699Z,24768
2017-07-18T09:24:32.001Z,27744
2017-07-18T09:25:42.308Z,40960
2017-07-18T09:26:52.330Z,28992
2017-07-18T09:28:02.328Z,27808
2017-07-18T09:29:12.879Z,29856
2017-07-18T09:30:22.887Z,46752
2017-07-18T09:31:33.196Z,82272
2017-07-18T09:32:43.492Z,71520
2017-07-18T09:33:53.802Z,89664
2017-07-18T09:35:04.356Z,87232
2017-07-18T09:36:14.690Z,84672
2017-07-18T09:37:24.995Z,85184
2017-07-18T09:38:35.280Z,84352
2017-07-18T09:39:45.578Z,44672
2017-07-18T09:40:55.825Z,28736
2017-07-18T09:42:06.153Z,28576
2017-07-18T09:43:16.452Z,31008
2017-07-18T09:44:26.763Z,46976
2017-07-18T09:45:37.062Z,71584
2017-07-18T09:46:47.301Z,68608
2017-07-18T09:47:57.609Z,93440
2017-07-18T09:49:07.604Z,89344
2017-07-18T09:50:17.575Z,86880
2017-07-18T09:51:27.875Z,85248
2017-07-18T09:52:38.436Z,70944
2017-07-18T09:53:48.109Z,63808
2017-07-18T09:54:58.615Z,55776
2017-07-18T09:56:08.916Z,60256
2017-07-18T09:57:19.222Z,36704
2017-07-18T09:58:29.485Z,80096
2017-07-18T09:59:39.471Z,97440
2017-07-18T10:00:49.496Z,96128
2017-07-18T10:01:59.791Z,72384
2017-07-18T10:03:09.812Z,94816
2017-07-18T10:04:20.059Z,91968
2017-07-18T10:05:30.396Z,97472
2017-07-18T10:06:40.712Z,100000
2017-07-18T10:07:50.721Z,98944
2017-07-18T10:09:01.006Z,104416
2017-07-18T10:10:11.237Z,107168
2017-07-18T10:11:21.535Z,105376
2017-07-18T10:12:31.208Z,52032
2017-07-18T10:13:41.194Z,48416
2017-07-18T10:14:51.491Z,73568
2017-07-18T10:16:01.755Z,40352
2017-07-18T10:17:12.062Z,40000
2017-07-18T10:18:22.375Z,39296
2017-07-18T10:19:32.353Z,40704
2017-07-18T10:20:42.640Z,53152
2017-07-18T10:21:53.184Z,67488
2017-07-18T10:23:03.496Z,101760
2017-07-18T10:24:13.174Z,42336
2017-07-18T10:25:23.178Z,40096
2017-07-18T10:26:33.476Z,40224
2017-07-18T10:27:43.708Z,105760
2017-07-18T10:28:53.709Z,108416
2017-07-18T10:30:03.379Z,105664
2017-07-18T10:31:13.685Z,108640
2017-07-18T10:32:24.026Z,112896
2017-07-18T10:33:34.271Z,108128
2017-07-18T10:34:44.566Z,108640
2017-07-18T10:35:54.580Z,104704
2017-07-18T10:37:04.887Z,112448
2017-07-18T10:38:15.178Z,111808
2017-07-18T10:39:25.767Z,108704
2017-07-18T10:40:36.057Z,105696
2017-07-18T10:41:46.040Z,109536
2017-07-18T10:42:56.342Z,111584
2017-07-18T10:44:06.636Z,110656
2017-07-18T10:45:16.873Z,109568
2017-07-18T10:46:26.874Z,108768
2017-07-18T10:47:37.258Z,107520
2017-07-18T10:48:47.256Z,108960
2017-07-18T10:49:57.545Z,107104
2017-07-18T10:51:07.775Z,106752
2017-07-18T10:52:18.330Z,111168
2017-07-18T10:53:28.647Z,107552
2017-07-18T10:54:38.939Z,100160
2017-07-18T10:55:49.266Z,101248
2017-07-18T10:56:59.811Z,101024
2017-07-18T10:58:09.828Z,106880
2017-07-18T10:59:20.120Z,108608
2017-07-18T11:00:30.452Z,111232
2017-07-18T11:01:40.774Z,110080
2017-07-18T11:02:51.328Z,104224
2017-07-18T11:04:01.640Z,107680
2017-07-18T11:05:11.946Z,117504
2017-07-18T11:06:21.943Z,107488
2017-07-18T11:07:31.931Z,103840
2017-07-18T11:08:42.485Z,106144
2017-07-18T11:09:52.489Z,111104
2017-07-18T11:11:02.479Z,113824
2017-07-18T11:12:12.474Z,109376
2017-07-18T11:13:22.802Z,109728
2017-07-18T11:14:33.056Z,118880
2017-07-18T11:15:43.051Z,112992
2017-07-18T11:16:53.340Z,109344
2017-07-18T11:18:03.647Z,115456
2017-07-18T11:19:13.944Z,110816
2017-07-18T11:20:24.577Z,118816
2017-07-18T11:21:34.244Z,120832
2017-07-18T11:22:44.547Z,120384
2017-07-18T11:23:54.229Z,118880
2017-07-18T11:25:04.221Z,115584
2017-07-18T11:26:14.787Z,119424
2017-07-18T11:27:25.107Z,118784
2017-07-18T11:28:35.434Z,118912
2017-07-18T11:29:45.720Z,119200
2017-07-18T11:30:56.019Z,110720
2017-07-18T11:32:06.566Z,106560
2017-07-18T11:33:16.566Z,101696
2017-07-18T11:34:26.556Z,100736
2017-07-18T11:35:36.872Z,105184
2017-07-18T11:36:47.179Z,108544
2017-07-18T11:37:57.727Z,106208
2017-07-18T11:39:08.016Z,99648
2017-07-18T11:40:18.021Z,111136
2017-07-18T11:41:28.018Z,108864
2017-07-18T11:42:38.329Z,106464
2017-07-18T11:43:48.916Z,106112
2017-07-18T11:44:59.211Z,104512
2017-07-18T11:46:09.520Z,109728
2017-07-18T11:47:19.816Z,110272
2017-07-18T11:48:29.987Z,117536
2017-07-18T11:49:40.651Z,115840
2017-07-18T11:50:50.651Z,123200
2017-07-18T11:52:00.947Z,125344
2017-07-18T11:53:11.253Z,125664
2017-07-18T11:54:21.227Z,120672
2017-07-18T11:55:31.464Z,123040
2017-07-18T11:56:41.771Z,121952
2017-07-18T11:57:52.085Z,119456
2017-07-18T11:59:02.414Z,121568
2017-07-18T12:00:12.400Z,117184
2017-07-18T12:01:22.960Z,112352
2017-07-18T12:02:32.950Z,119264
2017-07-18T12:03:42.667Z,126656
2017-07-18T12:04:52.971Z,120544
2017-07-18T12:06:02.966Z,54560
2017-07-18T12:07:13.511Z,43328
2017-07-18T12:08:23.491Z,120000
2017-07-18T12:09:33.774Z,123584
2017-07-18T12:10:44.089Z,119232
2017-07-18T12:11:54.389Z,103392
2017-07-18T12:13:04.936Z,123168
2017-07-18T12:14:14.922Z,119616
2017-07-18T12:15:24.926Z,109632
2017-07-18T12:16:35.232Z,114752
2017-07-18T12:17:45.545Z,122720
2017-07-18T12:18:55.781Z,126816
2017-07-18T12:20:06.101Z,128832
2017-07-18T12:21:16.088Z,130368
2017-07-18T12:22:26.393Z,129888
2017-07-18T12:23:36.399Z,119552
2017-07-18T12:24:46.937Z,125120
2017-07-18T12:25:57.254Z,129216
2017-07-18T12:27:07.245Z,126400
2017-07-18T12:28:17.529Z,119808
2017-07-18T12:29:27.836Z,118400
2017-07-18T12:30:38.387Z,122368
2017-07-18T12:31:48.679Z,120128
2017-07-18T12:32:58.685Z,116576
2017-07-18T12:34:08.677Z,119904
2017-07-18T12:35:18.997Z,122976
2017-07-18T12:36:29.540Z,120352
2017-07-18T12:37:39.830Z,116736
2017-07-18T12:38:49.832Z,115808
2017-07-18T12:40:00.149Z,119392
2017-07-18T12:41:10.153Z,120192
2017-07-18T12:42:20.705Z,117216
2017-07-18T12:43:31.042Z,120512
2017-07-18T12:44:41.331Z,124928
2017-07-18T12:45:51.646Z,119328
2017-07-18T12:47:01.959Z,122784
2017-07-18T12:48:12.518Z,123552
2017-07-18T12:49:22.839Z,125856
2017-07-18T12:50:32.817Z,129440
2017-07-18T12:51:43.112Z,130144
2017-07-18T12:52:53.408Z,130624
2017-07-18T12:54:03.349Z,127104
2017-07-18T12:55:13.334Z,128288
2017-07-18T12:56:23.300Z,127488
2017-07-18T12:57:33.284Z,121824
2017-07-18T12:58:43.583Z,123936
2017-07-18T12:59:54.141Z,117152
2017-07-18T13:01:04.137Z,115616
2017-07-18T13:02:14.155Z,125376
2017-07-18T13:03:24.456Z,116192
2017-07-18T13:04:34.754Z,114080
2017-07-18T13:05:45.350Z,124768
2017-07-18T13:06:55.661Z,136448
2017-07-18T13:08:05.970Z,110528
2017-07-18T13:09:15.962Z,90272
2017-07-18T13:10:25.960Z,114848
2017-07-18T13:11:36.540Z,121632
2017-07-18T13:12:46.526Z,130880
2017-07-18T13:13:56.219Z,124736
2017-07-18T13:15:06.537Z,113088
2017-07-18T13:16:16.854Z,113824
2017-07-18T13:17:27.160Z,119168
2017-07-18T13:18:37.468Z,114784
2017-07-18T13:19:47.454Z,119168
2017-07-18T13:20:57.454Z,100672
2017-07-18T13:22:07.751Z,109024
2017-07-18T13:23:18.297Z,107392
2017-07-18T13:24:28.613Z,112832
2017-07-18T13:25:38.954Z,118816
2017-07-18T13:26:49.273Z,117024
2017-07-18T13:27:59.278Z,120736
2017-07-18T13:29:09.816Z,115456
2017-07-18T13:30:19.817Z,112800
2017-07-18T13:31:30.153Z,117504
2017-07-18T13:32:40.496Z,117184
2017-07-18T13:33:50.821Z,116512
2017-07-18T13:35:01.377Z,119904
2017-07-18T13:36:11.366Z,118880
2017-07-18T13:37:21.355Z,122816
2017-07-18T13:38:31.679Z,120512
2017-07-18T13:39:42.002Z,120704
2017-07-18T13:40:52.620Z,125536
2017-07-18T13:42:02.935Z,123328
2017-07-18T13:43:13.238Z,106208
2017-07-18T13:44:23.542Z,110304
2017-07-18T13:45:33.852Z,117024
2017-07-18T13:46:44.424Z,120064
2017-07-18T13:47:54.451Z,116768
2017-07-18T13:49:04.751Z,115136
2017-07-18T13:50:14.741Z,115264
2017-07-18T13:51:24.726Z,120320
2017-07-18T13:52:34.994Z,122144
2017-07-18T13:53:44.695Z,120288
2017-07-18T13:54:54.680Z,112672
2017-07-18T13:56:04.666Z,116256
2017-07-18T13:57:14.982Z,118496
2017-07-18T13:58:25.249Z,115040
2017-07-18T13:59:35.590Z,117472
2017-07-18T14:00:45.571Z,119072
2017-07-18T14:01:55.890Z,115136
2017-07-18T14:03:05.882Z,116928
2017-07-18T14:04:16.430Z,119584
2017-07-18T14:05:26.435Z,109696
2017-07-18T14:06:36.741Z,108000
2017-07-18T14:07:46.742Z,103840
2017-07-18T14:08:56.751Z,107808
2017-07-18T14:10:06.991Z,107680
2017-07-18T14:11:17.298Z,104608
2017-07-18T14:12:27.602Z,110208
2017-07-18T14:13:37.934Z,113952
2017-07-18T14:14:48.266Z,113824
2017-07-18T14:15:58.508Z,114176
2017-07-18T14:17:08.807Z,115872
2017-07-18T14:18:19.110Z,113536
2017-07-18T14:19:29.401Z,113888
2017-07-18T14:20:39.409Z,111968
2017-07-18T14:21:49.982Z,111552
2017-07-18T14:23:00.283Z,116352
2017-07-18T14:24:10.582Z,122016
2017-07-18T14:25:20.274Z,120192
2017-07-18T14:26:30.590Z,114592
2017-07-18T14:27:41.145Z,111072
2017-07-18T14:28:51.157Z,107520
2017-07-18T14:30:01.186Z,99840
2017-07-18T14:31:11.510Z,99808
2017-07-18T14:32:21.245Z,118176
2017-07-18T14:33:31.805Z,117056
2017-07-18T14:34:42.114Z,115168
2017-07-18T14:35:52.425Z,105760
2017-07-18T14:37:02.112Z,107520
2017-07-18T14:38:12.399Z,108640
2017-07-18T14:39:22.976Z,86784
2017-07-18T14:40:33.275Z,94880
2017-07-18T14:41:43.583Z,93600
2017-07-18T14:42:53.876Z,96096
2017-07-18T14:44:03.879Z,88992
2017-07-18T14:45:14.133Z,78336
2017-07-18T14:46:24.439Z,87808
2017-07-18T14:47:34.733Z,95648
2017-07-18T14:48:44.729Z,92608
2017-07-18T14:49:55.052Z,98560
2017-07-18T14:51:05.294Z,94848
2017-07-18T14:52:15.615Z,99840
2017-07-18T14:53:25.927Z,109952
2017-07-18T14:54:36.234Z,109984
2017-07-18T14:55:46.529Z,107456
2017-07-18T14:56:56.766Z,115456
2017-07-18T14:58:07.067Z,109856
2017-07-18T14:59:17.373Z,105184
2017-07-18T15:00:27.679Z,106144
2017-07-18T15:01:37.994Z,109120
2017-07-18T15:02:48.583Z,98112
2017-07-18T15:03:58.588Z,99840
2017-07-18T15:05:08.887Z,107648
2017-07-18T15:06:19.191Z,102560
2017-07-18T15:07:29.483Z,100352
2017-07-18T15:08:39.718Z,97888
2017-07-18T15:09:50.016Z,96864
2017-07-18T15:11:00.341Z,106208
2017-07-18T15:12:10.623Z,106272
2017-07-18T15:13:20.925Z,100128
2017-07-18T15:14:31.468Z,100256
2017-07-18T15:15:41.471Z,98112
2017-07-18T15:16:51.767Z,93984
2017-07-18T15:18:01.753Z,83584
2017-07-18T15:19:12.066Z,94784
2017-07-18T15:20:22.621Z,88192
2017-07-18T15:21:32.920Z,80000
2017-07-18T15:22:43.218Z,79744
2017-07-18T15:23:53.230Z,78240
2017-07-18T15:25:03.551Z,77056
2017-07-18T15:26:13.471Z,79616